sensor_id;sensor_type;location;lat;lon;timestamp;pressure;altitude;pressure_sealevel;temperature;humidity
4398;BME280;2213;49.720;7.296;2022-07-18T00:00:10;98919.50;;;18.95;55.62
4398;BME280;2213;49.720;7.296;2022-07-18T00:02:41;98916.25;;;18.93;55.69
4398;BME280;2213;49.720;7.296;2022-07-18T00:05:10;98910.56;;;18.89;56.24
4398;BME280;2213;49.720;7.296;2022-07-18T00:07:43;98908.56;;;18.85;56.14
4398;BME280;2213;49.720;7.296;2022-07-18T00:10:13;98908.06;;;18.76;56.87
4398;BME280;2213;49.720;7.296;2022-07-18T00:12:42;98913.56;;;18.75;56.73
4398;BME280;2213;49.720;7.296;2022-07-18T00:15:12;98918.28;;;18.73;56.95
4398;BME280;2213;49.720;7.296;2022-07-18T00:17:42;98923.59;;;18.73;57.07
4398;BME280;2213;49.720;7.296;2022-07-18T00:20:12;98922.44;;;18.62;57.26
4398;BME280;2213;49.720;7.296;2022-07-18T00:22:43;98908.25;;;18.56;57.50
4398;BME280;2213;49.720;7.296;2022-07-18T00:25:12;98921.69;;;18.55;57.66
4398;BME280;2213;49.720;7.296;2022-07-18T00:27:42;98922.72;;;18.54;57.66
4398;BME280;2213;49.720;7.296;2022-07-18T00:30:14;98913.16;;;18.53;57.76
4398;BME280;2213;49.720;7.296;2022-07-18T00:32:43;98921.34;;;18.45;58.06
4398;BME280;2213;49.720;7.296;2022-07-18T00:35:15;98916.53;;;18.35;58.68
4398;BME280;2213;49.720;7.296;2022-07-18T00:37:45;98911.03;;;18.30;59.06
4398;BME280;2213;49.720;7.296;2022-07-18T00:40:15;98907.38;;;18.31;58.94
4398;BME280;2213;49.720;7.296;2022-07-18T00:42:44;98907.81;;;18.28;59.18
4398;BME280;2213;49.720;7.296;2022-07-18T00:45:14;98907.63;;;18.23;59.66
4398;BME280;2213;49.720;7.296;2022-07-18T00:47:44;98904.78;;;18.25;59.45
4398;BME280;2213;49.720;7.296;2022-07-18T00:50:14;98903.59;;;18.21;59.62
4398;BME280;2213;49.720;7.296;2022-07-18T00:52:46;98904.16;;;18.23;59.87
4398;BME280;2213;49.720;7.296;2022-07-18T00:55:15;98900.13;;;18.20;59.81
4398;BME280;2213;49.720;7.296;2022-07-18T00:57:46;98901.00;;;18.14;60.32
4398;BME280;2213;49.720;7.296;2022-07-18T01:00:16;98899.59;;;18.12;60.59
4398;BME280;2213;49.720;7.296;2022-07-18T01:03:03;98907.53;;;18.12;60.64
4398;BME280;2213;49.720;7.296;2022-07-18T01:05:34;98900.84;;;18.02;60.96
4398;BME280;2213;49.720;7.296;2022-07-18T01:08:06;98903.31;;;18.04;60.88
4398;BME280;2213;49.720;7.296;2022-07-18T01:10:36;98908.03;;;17.95;61.69
4398;BME280;2213;49.720;7.296;2022-07-18T01:13:06;98896.03;;;17.93;61.74
4398;BME280;2213;49.720;7.296;2022-07-18T01:15:36;98892.81;;;17.91;61.69
4398;BME280;2213;49.720;7.296;2022-07-18T01:18:06;98896.66;;;17.88;61.92
4398;BME280;2213;49.720;7.296;2022-07-18T01:20:36;98896.50;;;17.83;62.04
4398;BME280;2213;49.720;7.296;2022-07-18T01:23:06;98890.81;;;17.80;62.24
4398;BME280;2213;49.720;7.296;2022-07-18T01:25:36;98894.28;;;17.80;62.58
4398;BME280;2213;49.720;7.296;2022-07-18T01:28:07;98902.63;;;17.77;62.64
4398;BME280;2213;49.720;7.296;2022-07-18T01:30:37;98895.94;;;17.75;62.61
4398;BME280;2213;49.720;7.296;2022-07-18T01:33:06;98895.34;;;17.73;63.44
4398;BME280;2213;49.720;7.296;2022-07-18T01:35:37;98897.38;;;17.71;63.17
4398;BME280;2213;49.720;7.296;2022-07-18T01:38:05;98901.47;;;17.67;63.64
4398;BME280;2213;49.720;7.296;2022-07-18T01:40:35;98902.50;;;17.66;63.82
4398;BME280;2213;49.720;7.296;2022-07-18T01:43:05;98896.97;;;17.67;63.79
4398;BME280;2213;49.720;7.296;2022-07-18T01:45:36;98900.09;;;17.57;63.99
4398;BME280;2213;49.720;7.296;2022-07-18T01:48:07;98892.97;;;17.51;64.72
4398;BME280;2213;49.720;7.296;2022-07-18T01:50:38;98902.94;;;17.49;65.00
4398;BME280;2213;49.720;7.296;2022-07-18T01:53:08;98911.91;;;17.48;65.09
4398;BME280;2213;49.720;7.296;2022-07-18T01:55:38;98897.47;;;17.44;65.08
4398;BME280;2213;49.720;7.296;2022-07-18T01:58:07;98899.50;;;17.42;65.18
4398;BME280;2213;49.720;7.296;2022-07-18T02:00:37;98903.59;;;17.38;65.58
4398;BME280;2213;49.720;7.296;2022-07-18T02:03:07;98894.47;;;17.34;65.93
4398;BME280;2213;49.720;7.296;2022-07-18T02:05:38;98899.56;;;17.29;66.20
4398;BME280;2213;49.720;7.296;2022-07-18T02:08:09;98897.56;;;17.25;66.58
4398;BME280;2213;49.720;7.296;2022-07-18T02:10:40;98895.53;;;17.20;66.99
4398;BME280;2213;49.720;7.296;2022-07-18T02:13:11;98899.56;;;17.23;67.16
4398;BME280;2213;49.720;7.296;2022-07-18T02:15:41;98901.22;;;17.17;67.44
4398;BME280;2213;49.720;7.296;2022-07-18T02:18:10;98901.03;;;17.12;68.25
4398;BME280;2213;49.720;7.296;2022-07-18T02:20:41;98895.94;;;17.17;68.21
4398;BME280;2213;49.720;7.296;2022-07-18T02:23:11;98895.31;;;17.15;68.12
4398;BME280;2213;49.720;7.296;2022-07-18T02:25:40;98895.16;;;17.10;68.06
4398;BME280;2213;49.720;7.296;2022-07-18T02:28:09;98893.13;;;17.05;68.65
4398;BME280;2213;49.720;7.296;2022-07-18T02:30:39;98887.44;;;17.02;69.04
4398;BME280;2213;49.720;7.296;2022-07-18T02:33:08;98884.63;;;16.97;69.18
4398;BME280;2213;49.720;7.296;2022-07-18T02:35:38;98886.25;;;16.91;69.81
4398;BME280;2213;49.720;7.296;2022-07-18T02:38:10;98881.78;;;16.92;70.08
4398;BME280;2213;49.720;7.296;2022-07-18T02:40:41;98888.28;;;16.89;70.15
4398;BME280;2213;49.720;7.296;2022-07-18T02:43:11;98887.66;;;16.87;70.24
4398;BME280;2213;49.720;7.296;2022-07-18T02:45:41;98882.81;;;16.78;71.16
4398;BME280;2213;49.720;7.296;2022-07-18T02:48:12;98886.28;;;16.72;71.78
4398;BME280;2213;49.720;7.296;2022-07-18T02:50:41;98886.28;;;16.72;71.75
4398;BME280;2213;49.720;7.296;2022-07-18T02:53:13;98889.34;;;16.69;72.07
4398;BME280;2213;49.720;7.296;2022-07-18T02:55:43;98889.13;;;16.70;71.85
4398;BME280;2213;49.720;7.296;2022-07-18T02:58:13;98889.13;;;16.70;71.71
4398;BME280;2213;49.720;7.296;2022-07-18T03:00:44;98894.81;;;16.67;72.13
4398;BME280;2213;49.720;7.296;2022-07-18T03:03:15;98891.59;;;16.58;72.55
4398;BME280;2213;49.720;7.296;2022-07-18T03:05:44;98891.56;;;16.52;73.18
4398;BME280;2213;49.720;7.296;2022-07-18T03:08:17;98897.22;;;16.49;73.54
4398;BME280;2213;49.720;7.296;2022-07-18T03:10:47;98894.41;;;16.50;73.32
4398;BME280;2213;49.720;7.296;2022-07-18T03:13:17;98896.44;;;16.48;73.66
4398;BME280;2213;49.720;7.296;2022-07-18T03:15:47;98896.03;;;16.45;73.82
4398;BME280;2213;49.720;7.296;2022-07-18T03:18:17;98902.91;;;16.39;74.09
4398;BME280;2213;49.720;7.296;2022-07-18T03:20:47;98912.25;;;16.35;74.66
4398;BME280;2213;49.720;7.296;2022-07-18T03:23:19;98905.78;;;16.31;75.00
4398;BME280;2213;49.720;7.296;2022-07-18T03:25:49;98906.97;;;16.35;75.24
4398;BME280;2213;49.720;7.296;2022-07-18T03:28:20;98901.28;;;16.32;75.32
4398;BME280;2213;49.720;7.296;2022-07-18T03:30:50;98910.66;;;16.28;75.45
4398;BME280;2213;49.720;7.296;2022-07-18T03:33:20;98904.34;;;16.22;76.00
4398;BME280;2213;49.720;7.296;2022-07-18T03:35:50;98910.00;;;16.19;76.49
4398;BME280;2213;49.720;7.296;2022-07-18T03:38:22;98907.78;;;16.16;77.06
4398;BME280;2213;49.720;7.296;2022-07-18T03:40:52;98907.56;;;16.18;76.61
4398;BME280;2213;49.720;7.296;2022-07-18T03:43:23;98904.13;;;16.17;76.55
4398;BME280;2213;49.720;7.296;2022-07-18T03:45:53;98906.16;;;16.15;76.77
4398;BME280;2213;49.720;7.296;2022-07-18T03:48:23;98911.41;;;16.08;77.11
4398;BME280;2213;49.720;7.296;2022-07-18T03:50:53;98911.41;;;16.02;77.43
4398;BME280;2213;49.720;7.296;2022-07-18T03:53:25;98916.28;;;15.98;77.96
4398;BME280;2213;49.720;7.296;2022-07-18T03:55:54;98909.59;;;15.96;78.02
4398;BME280;2213;49.720;7.296;2022-07-18T03:58:24;98911.41;;;15.95;78.69
4398;BME280;2213;49.720;7.296;2022-07-18T04:00:54;98911.81;;;15.92;78.68
4398;BME280;2213;49.720;7.296;2022-07-18T04:03:24;98915.69;;;15.96;79.36
4398;BME280;2213;49.720;7.296;2022-07-18T04:05:54;98917.09;;;15.99;78.91
4398;BME280;2213;49.720;7.296;2022-07-18T04:08:26;98915.69;;;16.03;79.35
4398;BME280;2213;49.720;7.296;2022-07-18T04:10:55;98915.69;;;16.03;78.95
4398;BME280;2213;49.720;7.296;2022-07-18T04:13:25;98913.63;;;15.98;79.31
4398;BME280;2213;49.720;7.296;2022-07-18T04:15:55;98921.94;;;15.95;79.38
4398;BME280;2213;49.720;7.296;2022-07-18T04:18:24;98914.63;;;15.91;79.42
4398;BME280;2213;49.720;7.296;2022-07-18T04:20:55;98916.25;;;15.92;79.45
4398;BME280;2213;49.720;7.296;2022-07-18T04:23:26;98915.25;;;15.93;79.54
4398;BME280;2213;49.720;7.296;2022-07-18T04:25:56;98918.66;;;15.87;79.91
4398;BME280;2213;49.720;7.296;2022-07-18T04:28:27;98917.06;;;15.86;80.02
4398;BME280;2213;49.720;7.296;2022-07-18T04:30:57;98915.03;;;15.88;80.23
4398;BME280;2213;49.720;7.296;2022-07-18T04:33:28;98916.66;;;15.89;80.03
4398;BME280;2213;49.720;7.296;2022-07-18T04:35:58;98915.03;;;15.88;80.31
4398;BME280;2213;49.720;7.296;2022-07-18T04:38:29;98916.44;;;15.84;80.79
4398;BME280;2213;49.720;7.296;2022-07-18T04:41:02;98915.84;;;15.88;80.81
4398;BME280;2213;49.720;7.296;2022-07-18T04:43:33;98908.75;;;15.89;80.86
4398;BME280;2213;49.720;7.296;2022-07-18T04:46:03;98912.63;;;15.93;80.68
4398;BME280;2213;49.720;7.296;2022-07-18T04:48:32;98905.31;;;15.95;80.66
4398;BME280;2213;49.720;7.296;2022-07-18T04:51:02;98913.03;;;15.96;80.81
4398;BME280;2213;49.720;7.296;2022-07-18T04:53:34;98907.75;;;15.96;80.80
4398;BME280;2213;49.720;7.296;2022-07-18T04:56:06;98916.28;;;15.98;80.90
4398;BME280;2213;49.720;7.296;2022-07-18T04:58:36;98910.19;;;16.04;81.12
4398;BME280;2213;49.720;7.296;2022-07-18T05:01:07;98914.25;;;16.07;81.12
4398;BME280;2213;49.720;7.296;2022-07-18T05:03:37;98913.88;;;16.10;81.19
4398;BME280;2213;49.720;7.296;2022-07-18T05:06:07;98919.34;;;16.15;80.72
4398;BME280;2213;49.720;7.296;2022-07-18T05:08:39;98916.13;;;16.20;80.55
4398;BME280;2213;49.720;7.296;2022-07-18T05:11:10;98916.31;;;16.25;80.24
4398;BME280;2213;49.720;7.296;2022-07-18T05:13:39;98913.06;;;16.29;79.97
4398;BME280;2213;49.720;7.296;2022-07-18T05:16:09;98907.38;;;16.32;80.06
4398;BME280;2213;49.720;7.296;2022-07-18T05:18:40;98912.25;;;16.35;80.61
4398;BME280;2213;49.720;7.296;2022-07-18T05:21:09;98915.13;;;16.40;80.38
4398;BME280;2213;49.720;7.296;2022-07-18T05:23:40;98911.66;;;16.46;79.91
4398;BME280;2213;49.720;7.296;2022-07-18T05:26:10;98911.25;;;16.49;79.02
4398;BME280;2213;49.720;7.296;2022-07-18T05:28:41;98906.19;;;16.54;79.43
4398;BME280;2213;49.720;7.296;2022-07-18T05:31:13;98907.03;;;16.62;78.76
4398;BME280;2213;49.720;7.296;2022-07-18T05:33:43;98900.31;;;16.66;78.31
4398;BME280;2213;49.720;7.296;2022-07-18T05:36:14;98904.16;;;16.70;78.11
4398;BME280;2213;49.720;7.296;2022-07-18T05:38:45;98899.91;;;16.75;77.71
4398;BME280;2213;49.720;7.296;2022-07-18T05:41:15;98894.78;;;16.80;77.21
4398;BME280;2213;49.720;7.296;2022-07-18T05:43:46;98894.81;;;16.87;77.63
4398;BME280;2213;49.720;7.296;2022-07-18T05:46:16;98880.75;;;16.93;77.45
4398;BME280;2213;49.720;7.296;2022-07-18T05:48:46;98884.63;;;16.97;76.93
4398;BME280;2213;49.720;7.296;2022-07-18T05:51:17;98888.25;;;17.02;76.40
4398;BME280;2213;49.720;7.296;2022-07-18T05:53:51;98875.25;;;17.07;76.04
4398;BME280;2213;49.720;7.296;2022-07-18T05:56:21;98881.50;;;17.13;75.47
4398;BME280;2213;49.720;7.296;2022-07-18T05:58:52;98882.50;;;17.19;75.19
4398;BME280;2213;49.720;7.296;2022-07-18T06:01:24;98882.47;;;17.25;75.54
4398;BME280;2213;49.720;7.296;2022-07-18T06:03:53;98885.31;;;17.30;75.28
4398;BME280;2213;49.720;7.296;2022-07-18T06:06:25;98887.13;;;17.36;75.42
4398;BME280;2213;49.720;7.296;2022-07-18T06:08:57;98882.84;;;17.42;75.10
4398;BME280;2213;49.720;7.296;2022-07-18T06:11:31;98885.66;;;17.47;74.84
4398;BME280;2213;49.720;7.296;2022-07-18T06:14:02;98877.91;;;17.52;74.56
4398;BME280;2213;49.720;7.296;2022-07-18T06:16:32;98877.91;;;17.58;74.62
4398;BME280;2213;49.720;7.296;2022-07-18T06:19:03;98875.44;;;17.64;74.15
4398;BME280;2213;49.720;7.296;2022-07-18T06:21:33;98877.25;;;17.70;74.54
4398;BME280;2213;49.720;7.296;2022-07-18T06:24:06;98882.50;;;17.76;74.39
4398;BME280;2213;49.720;7.296;2022-07-18T06:26:36;98877.16;;;17.83;74.36
4398;BME280;2213;49.720;7.296;2022-07-18T06:29:06;98882.63;;;17.88;74.05
4398;BME280;2213;49.720;7.296;2022-07-18T06:31:36;98868.56;;;17.94;73.50
4398;BME280;2213;49.720;7.296;2022-07-18T06:34:06;98870.34;;;18.00;73.47
4398;BME280;2213;49.720;7.296;2022-07-18T06:36:35;98858.88;;;18.06;73.40
4398;BME280;2213;49.720;7.296;2022-07-18T06:39:07;98863.31;;;18.12;73.11
4398;BME280;2213;49.720;7.296;2022-07-18T06:41:39;98857.19;;;18.18;73.19
4398;BME280;2213;49.720;7.296;2022-07-18T06:44:09;98863.22;;;18.25;72.57
4398;BME280;2213;49.720;7.296;2022-07-18T06:46:39;98853.41;;;18.32;72.22
4398;BME280;2213;49.720;7.296;2022-07-18T06:49:09;98852.53;;;18.38;71.55
4398;BME280;2213;49.720;7.296;2022-07-18T06:51:38;98851.66;;;18.44;71.37
4398;BME280;2213;49.720;7.296;2022-07-18T06:54:09;98850.59;;;18.52;71.13
4398;BME280;2213;49.720;7.296;2022-07-18T06:56:40;98842.59;;;18.58;70.87
4398;BME280;2213;49.720;7.296;2022-07-18T06:59:10;98838.84;;;18.66;70.79
4398;BME280;2213;49.720;7.296;2022-07-18T07:01:39;98835.91;;;18.74;70.59
4398;BME280;2213;49.720;7.296;2022-07-18T07:04:10;98831.34;;;18.81;70.21
4398;BME280;2213;49.720;7.296;2022-07-18T07:06:41;98840.84;;;18.89;70.02
4398;BME280;2213;49.720;7.296;2022-07-18T07:09:13;98835.25;;;18.97;69.89
4398;BME280;2213;49.720;7.296;2022-07-18T07:11:42;98836.81;;;19.04;69.74
4398;BME280;2213;49.720;7.296;2022-07-18T07:14:11;98842.03;;;19.11;69.67
4398;BME280;2213;49.720;7.296;2022-07-18T07:16:41;98838.28;;;19.19;69.31
4398;BME280;2213;49.720;7.296;2022-07-18T07:19:12;98839.00;;;19.26;68.88
4398;BME280;2213;49.720;7.296;2022-07-18T07:21:41;98839.50;;;19.34;68.30
4398;BME280;2213;49.720;7.296;2022-07-18T07:24:13;98840.25;;;19.41;67.79
4398;BME280;2213;49.720;7.296;2022-07-18T07:26:43;98838.31;;;19.48;67.68
4398;BME280;2213;49.720;7.296;2022-07-18T07:29:21;98829.44;;;19.54;67.57
4398;BME280;2213;49.720;7.296;2022-07-18T07:31:52;98832.63;;;19.63;67.20
4398;BME280;2213;49.720;7.296;2022-07-18T07:34:23;98831.50;;;19.71;66.08
4398;BME280;2213;49.720;7.296;2022-07-18T07:36:53;98830.59;;;19.77;65.70
4398;BME280;2213;49.720;7.296;2022-07-18T07:39:25;98824.34;;;19.83;64.42
4398;BME280;2213;49.720;7.296;2022-07-18T07:41:57;98825.88;;;19.90;63.79
4398;BME280;2213;49.720;7.296;2022-07-18T07:44:31;98826.13;;;20.00;62.99
4398;BME280;2213;49.720;7.296;2022-07-18T07:47:02;98819.47;;;20.09;61.61
4398;BME280;2213;49.720;7.296;2022-07-18T07:49:32;98820.94;;;20.17;60.96
4398;BME280;2213;49.720;7.296;2022-07-18T07:52:02;98821.81;;;20.29;59.64
4398;BME280;2213;49.720;7.296;2022-07-18T07:54:34;98813.53;;;20.37;58.80
4398;BME280;2213;49.720;7.296;2022-07-18T07:57:04;98809.69;;;20.45;57.70
4398;BME280;2213;49.720;7.296;2022-07-18T07:59:35;98809.13;;;20.54;57.11
4398;BME280;2213;49.720;7.296;2022-07-18T08:02:04;98806.91;;;20.63;56.08
4398;BME280;2213;49.720;7.296;2022-07-18T08:04:33;98802.84;;;20.72;54.45
4398;BME280;2213;49.720;7.296;2022-07-18T08:07:02;98800.41;;;20.82;53.90
4398;BME280;2213;49.720;7.296;2022-07-18T08:09:36;98805.13;;;20.92;54.13
4398;BME280;2213;49.720;7.296;2022-07-18T08:12:05;98808.00;;;21.02;53.26
4398;BME280;2213;49.720;7.296;2022-07-18T08:14:37;98807.41;;;21.12;53.29
4398;BME280;2213;49.720;7.296;2022-07-18T08:17:08;98806.47;;;21.18;52.67
4398;BME280;2213;49.720;7.296;2022-07-18T08:19:38;98798.94;;;21.26;52.20
4398;BME280;2213;49.720;7.296;2022-07-18T08:22:08;98800.16;;;21.35;51.92
4398;BME280;2213;49.720;7.296;2022-07-18T08:24:40;98803.50;;;21.42;51.29
4398;BME280;2213;49.720;7.296;2022-07-18T08:27:10;98789.00;;;21.50;51.13
4398;BME280;2213;49.720;7.296;2022-07-18T08:29:40;98796.59;;;21.58;50.49
4398;BME280;2213;49.720;7.296;2022-07-18T08:32:29;98789.03;;;21.67;49.21
4398;BME280;2213;49.720;7.296;2022-07-18T08:34:58;98787.34;;;21.77;47.15
4398;BME280;2213;49.720;7.296;2022-07-18T08:37:28;98790.75;;;21.89;46.44
4398;BME280;2213;49.720;7.296;2022-07-18T08:39:59;98794.97;;;22.02;47.24
4398;BME280;2213;49.720;7.296;2022-07-18T08:42:33;98787.41;;;22.11;47.33
4398;BME280;2213;49.720;7.296;2022-07-18T08:45:12;98780.84;;;22.18;47.68
4398;BME280;2213;49.720;7.296;2022-07-18T08:47:44;98775.09;;;22.26;47.57
4398;BME280;2213;49.720;7.296;2022-07-18T08:50:14;98780.53;;;22.31;47.38
4398;BME280;2213;49.720;7.296;2022-07-18T08:52:44;98775.84;;;22.38;46.21
4398;BME280;2213;49.720;7.296;2022-07-18T08:55:24;98774.97;;;22.54;44.87
4398;BME280;2213;49.720;7.296;2022-07-18T08:57:55;98766.41;;;22.69;45.13
4398;BME280;2213;49.720;7.296;2022-07-18T09:00:35;98765.22;;;22.82;44.94
4398;BME280;2213;49.720;7.296;2022-07-18T09:03:06;98765.44;;;22.97;44.51
4398;BME280;2213;49.720;7.296;2022-07-18T09:05:35;98770.63;;;23.08;44.61
4398;BME280;2213;49.720;7.296;2022-07-18T09:08:12;98771.00;;;23.17;43.43
4398;BME280;2213;49.720;7.296;2022-07-18T09:10:54;98768.94;;;23.24;42.71
4398;BME280;2213;49.720;7.296;2022-07-18T09:13:36;98770.09;;;23.33;43.12
4398;BME280;2213;49.720;7.296;2022-07-18T09:16:09;98765.34;;;23.40;42.83
4398;BME280;2213;49.720;7.296;2022-07-18T09:18:43;98765.19;;;23.47;42.98
4398;BME280;2213;49.720;7.296;2022-07-18T09:21:15;98764.44;;;23.51;42.83
4398;BME280;2213;49.720;7.296;2022-07-18T09:23:48;98759.94;;;23.57;41.86
4398;BME280;2213;49.720;7.296;2022-07-18T09:26:42;98757.09;;;23.64;41.90
4398;BME280;2213;49.720;7.296;2022-07-18T09:29:16;98754.97;;;23.71;41.79
4398;BME280;2213;49.720;7.296;2022-07-18T09:31:57;98750.50;;;23.76;41.89
4398;BME280;2213;49.720;7.296;2022-07-18T09:34:34;98751.91;;;23.84;42.09
4398;BME280;2213;49.720;7.296;2022-07-18T09:37:04;98745.53;;;23.90;40.13
4398;BME280;2213;49.720;7.296;2022-07-18T09:39:39;98743.47;;;24.02;39.58
4398;BME280;2213;49.720;7.296;2022-07-18T09:42:18;98745.19;;;24.13;39.56
4398;BME280;2213;49.720;7.296;2022-07-18T09:44:58;98741.53;;;24.24;39.34
4398;BME280;2213;49.720;7.296;2022-07-18T09:47:27;98744.53;;;24.33;39.10
4398;BME280;2213;49.720;7.296;2022-07-18T09:49:58;98743.78;;;24.42;39.14
4398;BME280;2213;49.720;7.296;2022-07-18T09:52:28;98740.06;;;24.48;38.79
4398;BME280;2213;49.720;7.296;2022-07-18T09:55:06;98741.69;;;24.54;39.43
4398;BME280;2213;49.720;7.296;2022-07-18T09:57:40;98740.16;;;24.64;38.61
4398;BME280;2213;49.720;7.296;2022-07-18T10:00:13;98739.09;;;24.70;39.38
4398;BME280;2213;49.720;7.296;2022-07-18T10:02:44;98744.50;;;24.75;39.23
4398;BME280;2213;49.720;7.296;2022-07-18T10:05:17;98740.75;;;24.81;39.09
4398;BME280;2213;49.720;7.296;2022-07-18T10:07:47;98747.75;;;24.87;38.57
4398;BME280;2213;49.720;7.296;2022-07-18T10:10:18;98742.97;;;24.94;38.67
4398;BME280;2213;49.720;7.296;2022-07-18T10:12:52;98748.09;;;25.06;38.08
4398;BME280;2213;49.720;7.296;2022-07-18T10:15:23;98745.72;;;25.14;38.28
4398;BME280;2213;49.720;7.296;2022-07-18T10:17:55;98753.22;;;25.22;37.81
4398;BME280;2213;49.720;7.296;2022-07-18T10:20:30;98746.28;;;25.26;38.12
4398;BME280;2213;49.720;7.296;2022-07-18T10:23:16;98747.13;;;25.37;38.53
4398;BME280;2213;49.720;7.296;2022-07-18T10:26:12;98747.66;;;25.44;36.33
4398;BME280;2213;49.720;7.296;2022-07-18T10:29:26;98736.69;;;25.56;37.04
4398;BME280;2213;49.720;7.296;2022-07-18T10:32:05;98743.13;;;25.60;37.03
4398;BME280;2213;49.720;7.296;2022-07-18T10:34:37;98736.16;;;25.69;36.39
4398;BME280;2213;49.720;7.296;2022-07-18T10:37:10;98735.66;;;25.72;37.05
4398;BME280;2213;49.720;7.296;2022-07-18T10:39:42;98727.06;;;25.75;37.37
4398;BME280;2213;49.720;7.296;2022-07-18T10:42:19;98735.38;;;25.83;37.43
4398;BME280;2213;49.720;7.296;2022-07-18T10:44:51;98723.84;;;25.88;37.38
4398;BME280;2213;49.720;7.296;2022-07-18T10:47:28;98720.38;;;25.92;34.82
4398;BME280;2213;49.720;7.296;2022-07-18T10:50:09;98720.09;;;25.99;34.77
4398;BME280;2213;49.720;7.296;2022-07-18T10:53:00;98710.41;;;26.08;35.43
4398;BME280;2213;49.720;7.296;2022-07-18T10:55:46;98710.94;;;26.15;35.23
4398;BME280;2213;49.720;7.296;2022-07-18T10:58:20;98717.94;;;26.26;34.54
4398;BME280;2213;49.720;7.296;2022-07-18T11:01:09;98706.34;;;26.36;34.32
4398;BME280;2213;49.720;7.296;2022-07-18T11:03:43;98707.41;;;26.45;33.33
4398;BME280;2213;49.720;7.296;2022-07-18T11:06:13;98710.34;;;26.53;33.77
4398;BME280;2213;49.720;7.296;2022-07-18T11:08:42;98706.28;;;26.56;32.92
4398;BME280;2213;49.720;7.296;2022-07-18T11:11:12;98703.31;;;26.63;32.88
4398;BME280;2213;49.720;7.296;2022-07-18T11:13:46;98699.53;;;26.69;32.89
4398;BME280;2213;49.720;7.296;2022-07-18T11:16:22;98704.06;;;26.73;33.27
4398;BME280;2213;49.720;7.296;2022-07-18T11:19:19;98696.56;;;26.75;32.86
4398;BME280;2213;49.720;7.296;2022-07-18T11:21:59;98702.44;;;26.77;32.26
4398;BME280;2213;49.720;7.296;2022-07-18T11:24:29;98700.59;;;26.83;32.37
4398;BME280;2213;49.720;7.296;2022-07-18T11:27:04;98698.13;;;26.91;32.26
4398;BME280;2213;49.720;7.296;2022-07-18T11:29:40;98696.44;;;27.00;31.83
4398;BME280;2213;49.720;7.296;2022-07-18T11:32:20;98691.88;;;27.06;32.09
4398;BME280;2213;49.720;7.296;2022-07-18T11:34:49;98695.59;;;27.10;32.02
4398;BME280;2213;49.720;7.296;2022-07-18T11:37:20;98693.66;;;27.16;31.48
4398;BME280;2213;49.720;7.296;2022-07-18T11:39:49;98685.03;;;27.24;31.66
4398;BME280;2213;49.720;7.296;2022-07-18T11:42:34;98683.09;;;27.29;32.55
4398;BME280;2213;49.720;7.296;2022-07-18T11:45:05;98685.22;;;27.32;32.09
4398;BME280;2213;49.720;7.296;2022-07-18T11:47:44;98683.31;;;27.38;32.05
4398;BME280;2213;49.720;7.296;2022-07-18T11:50:16;98680.88;;;27.41;31.30
4398;BME280;2213;49.720;7.296;2022-07-18T11:52:56;98678.41;;;27.50;31.09
4398;BME280;2213;49.720;7.296;2022-07-18T11:55:33;98677.00;;;27.58;31.40
4398;BME280;2213;49.720;7.296;2022-07-18T11:58:07;98678.28;;;27.65;30.59
4398;BME280;2213;49.720;7.296;2022-07-18T12:00:37;98678.78;;;27.72;30.32
4398;BME280;2213;49.720;7.296;2022-07-18T12:03:14;98675.44;;;27.80;30.25
4398;BME280;2213;49.720;7.296;2022-07-18T12:05:47;98663.03;;;27.84;30.28
4398;BME280;2213;49.720;7.296;2022-07-18T12:08:33;98661.63;;;27.92;30.52
4398;BME280;2213;49.720;7.296;2022-07-18T12:11:17;98669.31;;;28.04;29.93
4398;BME280;2213;49.720;7.296;2022-07-18T12:13:52;98658.53;;;28.09;29.66
4398;BME280;2213;49.720;7.296;2022-07-18T12:16:36;98645.84;;;28.14;29.71
4398;BME280;2213;49.720;7.296;2022-07-18T12:19:09;98653.34;;;28.17;29.79
4398;BME280;2213;49.720;7.296;2022-07-18T12:21:50;98645.41;;;28.26;30.03
4398;BME280;2213;49.720;7.296;2022-07-18T12:24:32;98640.13;;;28.39;29.92
4398;BME280;2213;49.720;7.296;2022-07-18T12:27:15;98644.25;;;28.56;29.61
4398;BME280;2213;49.720;7.296;2022-07-18T12:30:08;98635.22;;;28.70;29.54
4398;BME280;2213;49.720;7.296;2022-07-18T12:32:46;98638.50;;;28.86;29.34
4398;BME280;2213;49.720;7.296;2022-07-18T12:35:22;98642.13;;;28.95;29.18
4398;BME280;2213;49.720;7.296;2022-07-18T12:37:54;98645.19;;;29.07;29.76
4398;BME280;2213;49.720;7.296;2022-07-18T12:40:26;98641.03;;;29.15;29.23
4398;BME280;2213;49.720;7.296;2022-07-18T12:43:05;98638.25;;;29.20;29.37
4398;BME280;2213;49.720;7.296;2022-07-18T12:45:35;98631.47;;;29.22;29.13
4398;BME280;2213;49.720;7.296;2022-07-18T12:48:08;98631.47;;;29.22;29.44
4398;BME280;2213;49.720;7.296;2022-07-18T12:50:55;98627.41;;;29.25;29.10
4398;BME280;2213;49.720;7.296;2022-07-18T12:53:27;98632.38;;;29.36;28.82
4398;BME280;2213;49.720;7.296;2022-07-18T12:55:56;98626.00;;;29.46;28.80
4398;BME280;2213;49.720;7.296;2022-07-18T12:58:27;98615.91;;;29.52;28.80
4398;BME280;2213;49.720;7.296;2022-07-18T13:00:56;98625.81;;;29.56;28.54
4398;BME280;2213;49.720;7.296;2022-07-18T13:03:33;98617.41;;;29.58;28.82
4398;BME280;2213;49.720;7.296;2022-07-18T13:06:04;98614.66;;;29.63;28.96
4398;BME280;2213;49.720;7.296;2022-07-18T13:08:36;98602.66;;;29.69;28.39
4398;BME280;2213;49.720;7.296;2022-07-18T13:11:05;98611.16;;;29.76;29.69
4398;BME280;2213;49.720;7.296;2022-07-18T13:13:36;98612.34;;;29.88;27.85
4398;BME280;2213;49.720;7.296;2022-07-18T13:16:07;98602.13;;;29.99;28.35
4398;BME280;2213;49.720;7.296;2022-07-18T13:18:36;98598.66;;;30.12;28.93
4398;BME280;2213;49.720;7.296;2022-07-18T13:21:10;98596.53;;;30.23;28.24
4398;BME280;2213;49.720;7.296;2022-07-18T13:23:41;98597.03;;;30.25;28.04
4398;BME280;2213;49.720;7.296;2022-07-18T13:26:11;98588.63;;;30.26;28.30
4398;BME280;2213;49.720;7.296;2022-07-18T13:28:41;98595.53;;;30.32;28.39
4398;BME280;2213;49.720;7.296;2022-07-18T13:31:10;98586.22;;;30.38;27.99
4398;BME280;2213;49.720;7.296;2022-07-18T13:33:41;98590.31;;;30.50;28.17
4398;BME280;2213;49.720;7.296;2022-07-18T13:36:13;98595.31;;;30.56;28.58
4398;BME280;2213;49.720;7.296;2022-07-18T13:38:44;98584.09;;;30.63;28.22
4398;BME280;2213;49.720;7.296;2022-07-18T13:41:13;98586.75;;;30.76;28.73
4398;BME280;2213;49.720;7.296;2022-07-18T13:43:42;98586.03;;;30.84;28.67
4398;BME280;2213;49.720;7.296;2022-07-18T13:46:12;98580.19;;;30.91;28.30
4398;BME280;2213;49.720;7.296;2022-07-18T13:48:41;98579.00;;;30.97;27.68